sensor_id;sensor_type;location;lat;lon;timestamp;P1;durP1;ratioP1;P2;durP2;ratioP2
9364;SDS011;4722;49.340;9.800;2023-02-14T00:01:35;22.67;;;9.23;;
9364;SDS011;4722;49.340;9.800;2023-02-14T00:04:02;21.75;;;8.15;;
9364;SDS011;4722;49.340;9.800;2023-02-14T00:06:29;18.30;;;9.38;;
9364;SDS011;4722;49.340;9.800;2023-02-14T00:08:56;23.40;;;11.10;;
9364;SDS011;4722;49.340;9.800;2023-02-14T00:11:22;20.95;;;8.45;;
9364;SDS011;4722;49.340;9.800;2023-02-14T00:13:48;22.05;;;7.97;;
9364;SDS011;4722;49.340;9.800;2023-02-14T00:16:33;25.25;;;9.75;;
9364;SDS011;4722;49.340;9.800;2023-02-14T00:18:59;25.05;;;10.75;;
9364;SDS011;4722;49.340;9.800;2023-02-14T00:21:28;24.60;;;8.13;;
9364;SDS011;4722;49.340;9.800;2023-02-14T00:23:54;21.40;;;8.90;;
9364;SDS011;4722;49.340;9.800;2023-02-14T00:26:20;21.65;;;9.63;;
9364;SDS011;4722;49.340;9.800;2023-02-14T00:28:46;21.02;;;8.80;;
9364;SDS011;4722;49.340;9.800;2023-02-14T00:31:12;21.13;;;9.25;;
9364;SDS011;4722;49.340;9.800;2023-02-14T00:33:38;21.73;;;8.23;;
9364;SDS011;4722;49.340;9.800;2023-02-14T00:36:05;24.80;;;9.48;;
9364;SDS011;4722;49.340;9.800;2023-02-14T00:38:31;20.23;;;7.90;;
9364;SDS011;4722;49.340;9.800;2023-02-14T00:40:58;21.05;;;8.48;;
9364;SDS011;4722;49.340;9.800;2023-02-14T00:43:24;22.38;;;9.88;;
9364;SDS011;4722;49.340;9.800;2023-02-14T00:45:49;26.50;;;10.48;;
9364;SDS011;4722;49.340;9.800;2023-02-14T00:48:15;22.33;;;9.48;;
9364;SDS011;4722;49.340;9.800;2023-02-14T00:50:41;31.08;;;11.45;;
9364;SDS011;4722;49.340;9.800;2023-02-14T00:53:09;20.52;;;9.25;;
9364;SDS011;4722;49.340;9.800;2023-02-14T00:55:35;21.45;;;9.02;;
9364;SDS011;4722;49.340;9.800;2023-02-14T00:58:01;21.67;;;8.82;;
9364;SDS011;4722;49.340;9.800;2023-02-14T01:00:27;22.30;;;9.70;;
9364;SDS011;4722;49.340;9.800;2023-02-14T01:02:53;21.00;;;9.90;;
9364;SDS011;4722;49.340;9.800;2023-02-14T01:05:19;33.40;;;10.23;;
9364;SDS011;4722;49.340;9.800;2023-02-14T01:07:45;23.90;;;10.75;;
9364;SDS011;4722;49.340;9.800;2023-02-14T01:10:11;21.88;;;8.07;;
9364;SDS011;4722;49.340;9.800;2023-02-14T01:12:37;18.77;;;9.43;;
9364;SDS011;4722;49.340;9.800;2023-02-14T01:15:03;21.95;;;8.98;;
9364;SDS011;4722;49.340;9.800;2023-02-14T01:17:29;26.40;;;8.60;;
9364;SDS011;4722;49.340;9.800;2023-02-14T01:19:55;21.63;;;9.70;;
9364;SDS011;4722;49.340;9.800;2023-02-14T01:22:21;24.25;;;9.50;;
9364;SDS011;4722;49.340;9.800;2023-02-14T01:24:47;25.80;;;8.95;;
9364;SDS011;4722;49.340;9.800;2023-02-14T01:27:13;20.48;;;9.57;;
9364;SDS011;4722;49.340;9.800;2023-02-14T01:29:39;23.90;;;9.60;;
9364;SDS011;4722;49.340;9.800;2023-02-14T01:32:05;21.10;;;8.43;;
9364;SDS011;4722;49.340;9.800;2023-02-14T01:34:31;22.27;;;8.73;;
9364;SDS011;4722;49.340;9.800;2023-02-14T01:36:57;18.15;;;9.57;;
9364;SDS011;4722;49.340;9.800;2023-02-14T01:39:23;26.85;;;10.57;;
9364;SDS011;4722;49.340;9.800;2023-02-14T01:41:49;24.52;;;10.68;;
9364;SDS011;4722;49.340;9.800;2023-02-14T01:46:44;19.95;;;9.38;;
9364;SDS011;4722;49.340;9.800;2023-02-14T01:49:11;27.25;;;10.55;;
9364;SDS011;4722;49.340;9.800;2023-02-14T01:51:43;25.88;;;9.88;;
9364;SDS011;4722;49.340;9.800;2023-02-14T01:54:10;32.60;;;10.77;;
9364;SDS011;4722;49.340;9.800;2023-02-14T01:56:40;30.00;;;10.35;;
9364;SDS011;4722;49.340;9.800;2023-02-14T01:59:09;23.60;;;8.82;;
9364;SDS011;4722;49.340;9.800;2023-02-14T02:01:37;31.60;;;10.80;;
9364;SDS011;4722;49.340;9.800;2023-02-14T02:04:06;26.23;;;8.80;;
9364;SDS011;4722;49.340;9.800;2023-02-14T02:06:37;25.20;;;9.70;;
9364;SDS011;4722;49.340;9.800;2023-02-14T02:11:32;20.17;;;9.15;;
9364;SDS011;4722;49.340;9.800;2023-02-14T02:13:58;25.58;;;10.90;;
9364;SDS011;4722;49.340;9.800;2023-02-14T02:21:55;26.02;;;10.27;;
9364;SDS011;4722;49.340;9.800;2023-02-14T02:37:53;24.05;;;9.50;;
9364;SDS011;4722;49.340;9.800;2023-02-14T02:45:42;24.85;;;10.73;;
9364;SDS011;4722;49.340;9.800;2023-02-14T02:48:39;23.58;;;10.63;;
9364;SDS011;4722;49.340;9.800;2023-02-14T02:51:06;21.02;;;9.98;;
9364;SDS011;4722;49.340;9.800;2023-02-14T02:53:54;23.70;;;10.90;;
9364;SDS011;4722;49.340;9.800;2023-02-14T02:56:24;27.63;;;9.40;;
9364;SDS011;4722;49.340;9.800;2023-02-14T02:59:10;23.05;;;9.85;;
9364;SDS011;4722;49.340;9.800;2023-02-14T03:01:52;20.52;;;9.43;;
9364;SDS011;4722;49.340;9.800;2023-02-14T03:04:19;25.67;;;11.10;;
9364;SDS011;4722;49.340;9.800;2023-02-14T03:07:05;26.75;;;10.55;;
9364;SDS011;4722;49.340;9.800;2023-02-14T03:09:55;18.88;;;8.63;;
9364;SDS011;4722;49.340;9.800;2023-02-14T03:12:56;17.50;;;8.80;;
9364;SDS011;4722;49.340;9.800;2023-02-14T03:18:14;20.83;;;8.73;;
9364;SDS011;4722;49.340;9.800;2023-02-14T03:20:52;20.50;;;9.73;;
9364;SDS011;4722;49.340;9.800;2023-02-14T03:28:52;23.80;;;9.55;;
9364;SDS011;4722;49.340;9.800;2023-02-14T03:33:57;19.88;;;10.05;;
9364;SDS011;4722;49.340;9.800;2023-02-14T03:36:47;28.23;;;10.90;;
9364;SDS011;4722;49.340;9.800;2023-02-14T03:39:27;23.42;;;8.65;;
9364;SDS011;4722;49.340;9.800;2023-02-14T03:41:58;27.15;;;11.13;;
9364;SDS011;4722;49.340;9.800;2023-02-14T03:44:28;17.85;;;9.10;;
9364;SDS011;4722;49.340;9.800;2023-02-14T03:46:57;16.33;;;8.10;;
9364;SDS011;4722;49.340;9.800;2023-02-14T03:49:25;17.65;;;7.97;;
9364;SDS011;4722;49.340;9.800;2023-02-14T03:51:53;22.30;;;8.70;;
9364;SDS011;4722;49.340;9.800;2023-02-14T03:54:21;23.25;;;9.85;;
9364;SDS011;4722;49.340;9.800;2023-02-14T03:56:51;16.90;;;8.10;;
9364;SDS011;4722;49.340;9.800;2023-02-14T03:59:19;21.67;;;10.02;;
9364;SDS011;4722;49.340;9.800;2023-02-14T04:04:13;20.05;;;9.85;;
9364;SDS011;4722;49.340;9.800;2023-02-14T04:06:40;17.50;;;7.97;;
9364;SDS011;4722;49.340;9.800;2023-02-14T04:09:05;16.90;;;7.68;;
9364;SDS011;4722;49.340;9.800;2023-02-14T04:11:32;27.73;;;10.23;;
9364;SDS011;4722;49.340;9.800;2023-02-14T04:13:59;17.85;;;7.93;;
9364;SDS011;4722;49.340;9.800;2023-02-14T04:16:25;19.27;;;7.35;;
9364;SDS011;4722;49.340;9.800;2023-02-14T04:18:51;13.95;;;6.60;;
9364;SDS011;4722;49.340;9.800;2023-02-14T04:21:36;19.45;;;7.80;;
9364;SDS011;4722;49.340;9.800;2023-02-14T04:24:02;16.80;;;7.90;;
9364;SDS011;4722;49.340;9.800;2023-02-14T04:26:28;20.02;;;8.27;;
9364;SDS011;4722;49.340;9.800;2023-02-14T04:28:54;20.17;;;9.90;;
9364;SDS011;4722;49.340;9.800;2023-02-14T04:31:20;21.73;;;9.63;;
9364;SDS011;4722;49.340;9.800;2023-02-14T04:33:46;15.32;;;7.35;;
9364;SDS011;4722;49.340;9.800;2023-02-14T04:36:15;19.15;;;8.23;;
9364;SDS011;4722;49.340;9.800;2023-02-14T04:38:41;12.82;;;8.40;;
9364;SDS011;4722;49.340;9.800;2023-02-14T04:41:06;13.80;;;7.85;;
9364;SDS011;4722;49.340;9.800;2023-02-14T04:43:32;17.30;;;7.50;;
9364;SDS011;4722;49.340;9.800;2023-02-14T04:45:58;13.48;;;6.45;;
9364;SDS011;4722;49.340;9.800;2023-02-14T04:48:24;17.85;;;8.25;;
9364;SDS011;4722;49.340;9.800;2023-02-14T04:50:51;18.77;;;7.70;;
9364;SDS011;4722;49.340;9.800;2023-02-14T04:53:17;18.05;;;7.60;;
9364;SDS011;4722;49.340;9.800;2023-02-14T04:55:43;17.67;;;7.85;;
9364;SDS011;4722;49.340;9.800;2023-02-14T04:58:09;21.33;;;9.02;;
9364;SDS011;4722;49.340;9.800;2023-02-14T05:00:35;16.58;;;7.22;;
9364;SDS011;4722;49.340;9.800;2023-02-14T05:03:01;20.27;;;9.18;;
9364;SDS011;4722;49.340;9.800;2023-02-14T05:05:27;24.33;;;10.23;;
9364;SDS011;4722;49.340;9.800;2023-02-14T05:07:53;22.27;;;7.70;;
9364;SDS011;4722;49.340;9.800;2023-02-14T05:10:19;19.38;;;8.73;;
9364;SDS011;4722;49.340;9.800;2023-02-14T05:12:45;19.30;;;8.10;;
9364;SDS011;4722;49.340;9.800;2023-02-14T05:15:11;23.02;;;9.05;;
9364;SDS011;4722;49.340;9.800;2023-02-14T05:17:37;24.55;;;9.63;;
9364;SDS011;4722;49.340;9.800;2023-02-14T05:20:03;19.55;;;8.93;;
9364;SDS011;4722;49.340;9.800;2023-02-14T05:22:29;16.60;;;7.88;;
9364;SDS011;4722;49.340;9.800;2023-02-14T05:24:55;26.15;;;9.27;;
9364;SDS011;4722;49.340;9.800;2023-02-14T05:27:21;20.17;;;7.65;;
9364;SDS011;4722;49.340;9.800;2023-02-14T05:29:47;26.95;;;9.20;;
9364;SDS011;4722;49.340;9.800;2023-02-14T05:32:13;17.63;;;8.05;;
9364;SDS011;4722;49.340;9.800;2023-02-14T05:34:39;19.33;;;7.15;;
9364;SDS011;4722;49.340;9.800;2023-02-14T05:37:05;16.15;;;7.35;;
9364;SDS011;4722;49.340;9.800;2023-02-14T05:39:31;22.77;;;9.68;;
9364;SDS011;4722;49.340;9.800;2023-02-14T05:41:57;20.73;;;9.07;;
9364;SDS011;4722;49.340;9.800;2023-02-14T05:44:23;16.70;;;8.23;;
9364;SDS011;4722;49.340;9.800;2023-02-14T05:46:49;18.10;;;8.10;;
9364;SDS011;4722;49.340;9.800;2023-02-14T05:49:15;21.65;;;8.20;;
9364;SDS011;4722;49.340;9.800;2023-02-14T05:51:41;14.25;;;8.02;;
9364;SDS011;4722;49.340;9.800;2023-02-14T05:54:07;17.85;;;6.85;;
9364;SDS011;4722;49.340;9.800;2023-02-14T05:56:33;14.55;;;7.82;;
9364;SDS011;4722;49.340;9.800;2023-02-14T05:58:59;15.82;;;7.72;;
9364;SDS011;4722;49.340;9.800;2023-02-14T06:01:25;20.33;;;8.23;;
9364;SDS011;4722;49.340;9.800;2023-02-14T06:03:51;17.33;;;8.23;;
9364;SDS011;4722;49.340;9.800;2023-02-14T06:06:17;26.33;;;8.15;;
9364;SDS011;4722;49.340;9.800;2023-02-14T06:08:43;17.80;;;7.47;;
9364;SDS011;4722;49.340;9.800;2023-02-14T06:11:09;23.52;;;9.82;;
9364;SDS011;4722;49.340;9.800;2023-02-14T06:13:34;18.58;;;7.50;;
9364;SDS011;4722;49.340;9.800;2023-02-14T06:16:01;16.13;;;6.88;;
9364;SDS011;4722;49.340;9.800;2023-02-14T06:18:27;21.67;;;9.18;;
9364;SDS011;4722;49.340;9.800;2023-02-14T06:20:53;20.65;;;8.63;;
9364;SDS011;4722;49.340;9.800;2023-02-14T06:23:19;18.33;;;8.85;;
9364;SDS011;4722;49.340;9.800;2023-02-14T06:25:45;25.35;;;9.60;;
9364;SDS011;4722;49.340;9.800;2023-02-14T06:28:11;20.83;;;8.15;;
9364;SDS011;4722;49.340;9.800;2023-02-14T06:30:37;20.60;;;7.85;;
9364;SDS011;4722;49.340;9.800;2023-02-14T06:33:03;19.25;;;7.57;;
9364;SDS011;4722;49.340;9.800;2023-02-14T06:35:29;22.10;;;7.95;;
9364;SDS011;4722;49.340;9.800;2023-02-14T06:37:55;20.60;;;8.10;;
9364;SDS011;4722;49.340;9.800;2023-02-14T06:40:21;19.33;;;8.43;;
9364;SDS011;4722;49.340;9.800;2023-02-14T06:42:48;17.73;;;7.65;;
9364;SDS011;4722;49.340;9.800;2023-02-14T06:45:14;18.73;;;7.97;;
9364;SDS011;4722;49.340;9.800;2023-02-14T06:47:40;23.38;;;8.57;;
9364;SDS011;4722;49.340;9.800;2023-02-14T06:50:06;15.60;;;7.50;;
9364;SDS011;4722;49.340;9.800;2023-02-14T06:52:32;10.82;;;6.93;;
9364;SDS011;4722;49.340;9.800;2023-02-14T06:54:58;23.77;;;7.63;;
9364;SDS011;4722;49.340;9.800;2023-02-14T06:57:24;18.75;;;8.07;;
9364;SDS011;4722;49.340;9.800;2023-02-14T06:59:50;18.35;;;8.25;;
9364;SDS011;4722;49.340;9.800;2023-02-14T07:02:16;21.58;;;8.77;;
9364;SDS011;4722;49.340;9.800;2023-02-14T07:04:42;23.70;;;9.82;;
9364;SDS011;4722;49.340;9.800;2023-02-14T07:07:08;19.92;;;8.70;;
9364;SDS011;4722;49.340;9.800;2023-02-14T07:09:34;20.25;;;8.25;;
9364;SDS011;4722;49.340;9.800;2023-02-14T07:12:00;20.35;;;8.52;;
9364;SDS011;4722;49.340;9.800;2023-02-14T07:14:26;18.52;;;8.68;;
9364;SDS011;4722;49.340;9.800;2023-02-14T07:16:51;18.75;;;7.97;;
9364;SDS011;4722;49.340;9.800;2023-02-14T07:19:17;18.02;;;7.68;;
9364;SDS011;4722;49.340;9.800;2023-02-14T07:21:43;19.42;;;9.07;;
9364;SDS011;4722;49.340;9.800;2023-02-14T07:24:09;16.58;;;7.75;;
9364;SDS011;4722;49.340;9.800;2023-02-14T07:26:35;14.05;;;6.07;;
9364;SDS011;4722;49.340;9.800;2023-02-14T07:29:01;16.95;;;6.43;;
9364;SDS011;4722;49.340;9.800;2023-02-14T07:31:27;19.38;;;8.05;;
9364;SDS011;4722;49.340;9.800;2023-02-14T07:33:53;16.35;;;7.53;;
9364;SDS011;4722;49.340;9.800;2023-02-14T07:36:19;26.13;;;7.95;;
9364;SDS011;4722;49.340;9.800;2023-02-14T07:38:45;13.27;;;5.97;;
9364;SDS011;4722;49.340;9.800;2023-02-14T07:41:11;16.40;;;7.80;;
9364;SDS011;4722;49.340;9.800;2023-02-14T07:43:37;11.27;;;6.72;;
9364;SDS011;4722;49.340;9.800;2023-02-14T07:46:03;21.25;;;7.07;;
9364;SDS011;4722;49.340;9.800;2023-02-14T07:48:30;12.75;;;6.57;;
9364;SDS011;4722;49.340;9.800;2023-02-14T07:50:56;18.52;;;7.88;;
9364;SDS011;4722;49.340;9.800;2023-02-14T07:53:22;13.90;;;7.22;;
9364;SDS011;4722;49.340;9.800;2023-02-14T07:55:49;15.93;;;7.82;;
9364;SDS011;4722;49.340;9.800;2023-02-14T07:58:18;11.57;;;6.38;;
9364;SDS011;4722;49.340;9.800;2023-02-14T08:00:43;20.88;;;7.82;;
9364;SDS011;4722;49.340;9.800;2023-02-14T08:03:12;20.73;;;7.60;;
9364;SDS011;4722;49.340;9.800;2023-02-14T08:05:39;13.25;;;5.63;;
9364;SDS011;4722;49.340;9.800;2023-02-14T08:08:05;16.70;;;6.88;;
9364;SDS011;4722;49.340;9.800;2023-02-14T08:10:31;12.93;;;8.57;;
9364;SDS011;4722;49.340;9.800;2023-02-14T08:12:57;13.63;;;4.57;;
9364;SDS011;4722;49.340;9.800;2023-02-14T08:15:33;20.38;;;6.85;;
9364;SDS011;4722;49.340;9.800;2023-02-14T08:18:19;14.38;;;6.28;;
9364;SDS011;4722;49.340;9.800;2023-02-14T08:20:46;15.02;;;7.13;;
9364;SDS011;4722;49.340;9.800;2023-02-14T08:23:13;22.80;;;9.32;;
9364;SDS011;4722;49.340;9.800;2023-02-14T08:25:39;18.63;;;8.60;;
9364;SDS011;4722;49.340;9.800;2023-02-14T08:28:05;20.95;;;8.15;;
9364;SDS011;4722;49.340;9.800;2023-02-14T08:30:32;19.17;;;8.35;;
9364;SDS011;4722;49.340;9.800;2023-02-14T08:32:58;17.27;;;7.15;;
9364;SDS011;4722;49.340;9.800;2023-02-14T08:35:24;16.80;;;6.32;;
9364;SDS011;4722;49.340;9.800;2023-02-14T08:37:50;11.75;;;6.00;;
9364;SDS011;4722;49.340;9.800;2023-02-14T08:40:16;17.65;;;7.50;;
9364;SDS011;4722;49.340;9.800;2023-02-14T08:42:41;17.67;;;7.28;;
9364;SDS011;4722;49.340;9.800;2023-02-14T08:45:08;17.42;;;6.95;;
9364;SDS011;4722;49.340;9.800;2023-02-14T08:47:34;11.77;;;6.38;;
9364;SDS011;4722;49.340;9.800;2023-02-14T08:50:02;13.18;;;5.93;;
9364;SDS011;4722;49.340;9.800;2023-02-14T08:52:28;13.43;;;6.10;;
9364;SDS011;4722;49.340;9.800;2023-02-14T08:54:54;13.63;;;6.13;;
9364;SDS011;4722;49.340;9.800;2023-02-14T08:57:20;11.80;;;6.07;;
9364;SDS011;4722;49.340;9.800;2023-02-14T08:59:47;18.48;;;6.88;;
9364;SDS011;4722;49.340;9.800;2023-02-14T09:02:13;12.85;;;6.47;;
9364;SDS011;4722;49.340;9.800;2023-02-14T09:04:40;13.05;;;6.15;;
9364;SDS011;4722;49.340;9.800;2023-02-14T09:07:06;14.43;;;6.80;;
9364;SDS011;4722;49.340;9.800;2023-02-14T09:09:32;11.75;;;5.70;;
9364;SDS011;4722;49.340;9.800;2023-02-14T09:12:02;11.60;;;6.47;;
9364;SDS011;4722;49.340;9.800;2023-02-14T09:14:28;11.25;;;5.63;;
9364;SDS011;4722;49.340;9.800;2023-02-14T09:16:54;14.82;;;7.03;;
9364;SDS011;4722;49.340;9.800;2023-02-14T09:19:20;18.40;;;7.30;;
9364;SDS011;4722;49.340;9.800;2023-02-14T09:21:45;13.55;;;5.32;;
9364;SDS011;4722;49.340;9.800;2023-02-14T09:24:11;13.20;;;5.13;;
9364;SDS011;4722;49.340;9.800;2023-02-14T09:26:37;18.55;;;7.60;;
9364;SDS011;4722;49.340;9.800;2023-02-14T09:29:06;15.77;;;6.50;;
9364;SDS011;4722;49.340;9.800;2023-02-14T09:31:32;10.10;;;5.70;;
9364;SDS011;4722;49.340;9.800;2023-02-14T09:33:58;14.43;;;6.30;;
9364;SDS011;4722;49.340;9.800;2023-02-14T09:36:42;12.82;;;6.72;;
9364;SDS011;4722;49.340;9.800;2023-02-14T09:39:08;18.80;;;7.15;;
9364;SDS011;4722;49.340;9.800;2023-02-14T09:44:09;22.63;;;7.63;;
9364;SDS011;4722;49.340;9.800;2023-02-14T09:46:41;15.75;;;7.80;;
9364;SDS011;4722;49.340;9.800;2023-02-14T09:49:12;15.48;;;6.38;;
9364;SDS011;4722;49.340;9.800;2023-02-14T09:51:39;12.93;;;6.45;;
9364;SDS011;4722;49.340;9.800;2023-02-14T09:54:10;12.10;;;4.78;;
9364;SDS011;4722;49.340;9.800;2023-02-14T09:56:42;13.88;;;6.82;;
9364;SDS011;4722;49.340;9.800;2023-02-14T09:59:25;12.70;;;6.18;;
9364;SDS011;4722;49.340;9.800;2023-02-14T10:02:10;9.98;;;5.13;;
9364;SDS011;4722;49.340;9.800;2023-02-14T10:04:56;11.95;;;5.70;;
9364;SDS011;4722;49.340;9.800;2023-02-14T10:07:38;12.00;;;5.35;;
9364;SDS011;4722;49.340;9.800;2023-02-14T10:10:15;21.92;;;7.95;;
9364;SDS011;4722;49.340;9.800;2023-02-14T10:12:52;15.25;;;6.88;;
9364;SDS011;4722;49.340;9.800;2023-02-14T10:15:21;16.60;;;6.25;;
9364;SDS011;4722;49.340;9.800;2023-02-14T10:17:50;12.82;;;5.80;;
9364;SDS011;4722;49.340;9.800;2023-02-14T10:20:24;19.45;;;5.78;;
9364;SDS011;4722;49.340;9.800;2023-02-14T10:26:11;16.75;;;6.68;;
9364;SDS011;4722;49.340;9.800;2023-02-14T10:28:34;15.45;;;6.95;;
9364;SDS011;4722;49.340;9.800;2023-02-14T10:31:10;9.57;;;4.45;;
9364;SDS011;4722;49.340;9.800;2023-02-14T10:33:38;13.20;;;5.85;;
9364;SDS011;4722;49.340;9.800;2023-02-14T10:36:50;12.80;;;5.03;;
9364;SDS011;4722;49.340;9.800;2023-02-14T10:39:15;15.30;;;6.22;;
9364;SDS011;4722;49.340;9.800;2023-02-14T10:42:24;14.13;;;6.90;;
9364;SDS011;4722;49.340;9.800;2023-02-14T10:47:13;21.80;;;9.10;;
9364;SDS011;4722;49.340;9.800;2023-02-14T10:52:28;14.25;;;7.30;;
9364;SDS011;4722;49.340;9.800;2023-02-14T10:54:59;13.65;;;5.50;;
9364;SDS011;4722;49.340;9.800;2023-02-14T10:57:27;11.82;;;6.03;;
9364;SDS011;4722;49.340;9.800;2023-02-14T11:00:04;18.95;;;7.15;;
9364;SDS011;4722;49.340;9.800;2023-02-14T11:02:35;12.65;;;6.35;;
9364;SDS011;4722;49.340;9.800;2023-02-14T11:05:03;10.05;;;5.32;;
9364;SDS011;4722;49.340;9.800;2023-02-14T11:07:30;12.95;;;6.68;;
9364;SDS011;4722;49.340;9.800;2023-02-14T11:09:57;17.95;;;7.45;;
9364;SDS011;4722;49.340;9.800;2023-02-14T11:12:33;24.13;;;8.57;;
9364;SDS011;4722;49.340;9.800;2023-02-14T11:17:39;19.98;;;7.43;;
9364;SDS011;4722;49.340;9.800;2023-02-14T11:22:44;16.92;;;6.35;;
9364;SDS011;4722;49.340;9.800;2023-02-14T11:27:45;12.98;;;6.72;;
9364;SDS011;4722;49.340;9.800;2023-02-14T11:32:55;13.57;;;6.40;;
9364;SDS011;4722;49.340;9.800;2023-02-14T11:35:22;20.80;;;7.97;;
9364;SDS011;4722;49.340;9.800;2023-02-14T11:37:51;12.18;;;5.25;;
9364;SDS011;4722;49.340;9.800;2023-02-14T11:42:49;15.25;;;6.40;;
9364;SDS011;4722;49.340;9.800;2023-02-14T11:47:58;13.45;;;6.25;;
9364;SDS011;4722;49.340;9.800;2023-02-14T11:50:30;19.48;;;7.75;;
9364;SDS011;4722;49.340;9.800;2023-02-14T11:52:56;13.45;;;6.50;;
9364;SDS011;4722;49.340;9.800;2023-02-14T11:55:25;15.80;;;5.63;;
9364;SDS011;4722;49.340;9.800;2023-02-14T11:57:51;12.90;;;5.63;;
9364;SDS011;4722;49.340;9.800;2023-02-14T12:00:18;16.00;;;6.78;;
9364;SDS011;4722;49.340;9.800;2023-02-14T12:02:47;12.48;;;5.72;;
9364;SDS011;4722;49.340;9.800;2023-02-14T12:05:27;12.80;;;5.85;;
9364;SDS011;4722;49.340;9.800;2023-02-14T12:07:58;14.55;;;7.15;;
9364;SDS011;4722;49.340;9.800;2023-02-14T12:10:27;19.05;;;6.55;;
9364;SDS011;4722;49.340;9.800;2023-02-14T12:13:02;15.80;;;6.78;;
9364;SDS011;4722;49.340;9.800;2023-02-14T12:15:29;15.30;;;5.95;;
9364;SDS011;4722;49.340;9.800;2023-02-14T12:20:34;14.32;;;5.90;;
9364;SDS011;4722;49.340;9.800;2023-02-14T12:23:06;13.00;;;6.50;;
9364;SDS011;4722;49.340;9.800;2023-02-14T12:26:18;13.77;;;6.82;;
9364;SDS011;4722;49.340;9.800;2023-02-14T12:31:15;17.27;;;6.60;;
9364;SDS011;4722;49.340;9.800;2023-02-14T12:33:41;12.88;;;6.63;;
9364;SDS011;4722;49.340;9.800;2023-02-14T12:36:09;15.77;;;7.30;;
9364;SDS011;4722;49.340;9.800;2023-02-14T12:38:46;17.58;;;7.95;;
9364;SDS011;4722;49.340;9.800;2023-02-14T12:49:45;12.13;;;6.10;;
9364;SDS011;4722;49.340;9.800;2023-02-14T12:54:58;13.68;;;6.38;;
9364;SDS011;4722;49.340;9.800;2023-02-14T12:57:48;16.70;;;7.05;;
9364;SDS011;4722;49.340;9.800;2023-02-14T13:00:27;20.25;;;7.20;;
9364;SDS011;4722;49.340;9.800;2023-02-14T13:05:33;9.82;;;5.50;;
9364;SDS011;4722;49.340;9.800;2023-02-14T13:13:10;12.68;;;6.22;;
9364;SDS011;4722;49.340;9.800;2023-02-14T13:15:48;14.02;;;6.03;;
9364;SDS011;4722;49.340;9.800;2023-02-14T13:20:56;18.35;;;8.07;;
9364;SDS011;4722;49.340;9.800;2023-02-14T13:23:27;18.98;;;9.05;;
9364;SDS011;4722;49.340;9.800;2023-02-14T13:28:42;16.85;;;7.32;;
9364;SDS011;4722;49.340;9.800;2023-02-14T13:31:09;20.05;;;6.97;;
9364;SDS011;4722;49.340;9.800;2023-02-14T13:33:47;20.60;;;7.43;;
9364;SDS011;4722;49.340;9.800;2023-02-14T13:36:16;23.38;;;8.07;;
9364;SDS011;4722;49.340;9.800;2023-02-14T13:38:42;15.00;;;6.97;;
9364;SDS011;4722;49.340;9.800;2023-02-14T13:41:09;9.60;;;6.10;;
9364;SDS011;4722;49.340;9.800;2023-02-14T13:43:52;18.15;;;7.00;;
9364;SDS011;4722;49.340;9.800;2023-02-14T13:46:21;13.75;;;6.78;;
9364;SDS011;4722;49.340;9.800;2023-02-14T13:48:57;12.85;;;5.60;;
9364;SDS011;4722;49.340;9.800;2023-02-14T13:54:30;15.93;;;6.82;;
9364;SDS011;4722;49.340;9.800;2023-02-14T13:56:56;15.13;;;6.70;;
9364;SDS011;4722;49.340;9.800;2023-02-14T13:59:33;11.95;;;5.68;;
9364;SDS011;4722;49.340;9.800;2023-02-14T14:04:47;11.80;;;5.80;;
9364;SDS011;4722;49.340;9.800;2023-02-14T14:07:17;16.35;;;6.18;;
9364;SDS011;4722;49.340;9.800;2023-02-14T14:12:45;13.15;;;5.75;;
9364;SDS011;4722;49.340;9.800;2023-02-14T14:17:31;17.77;;;7.05;;
9364;SDS011;4722;49.340;9.800;2023-02-14T14:19:57;16.45;;;7.70;;
9364;SDS011;4722;49.340;9.800;2023-02-14T14:22:23;11.65;;;5.45;;
9364;SDS011;4722;49.340;9.800;2023-02-14T14:25:11;11.55;;;5.05;;
9364;SDS011;4722;49.340;9.800;2023-02-14T14:27:39;12.50;;;5.78;;
9364;SDS011;4722;49.340;9.800;2023-02-14T14:30:17;15.98;;;6.78;;
9364;SDS011;4722;49.340;9.800;2023-02-14T14:32:44;13.70;;;6.60;;
9364;SDS011;4722;49.340;9.800;2023-02-14T14:38:12;11.70;;;5.38;;
9364;SDS011;4722;49.340;9.800;2023-02-14T14:40:33;14.73;;;6.38;;
9364;SDS011;4722;49.340;9.800;2023-02-14T14:45:31;15.25;;;7.45;;
9364;SDS011;4722;49.340;9.800;2023-02-14T14:47:58;16.67;;;7.45;;
9364;SDS011;4722;49.340;9.800;2023-02-14T14:50:28;16.70;;;6.78;;
9364;SDS011;4722;49.340;9.800;2023-02-14T14:53:05;22.88;;;8.20;;
9364;SDS011;4722;49.340;9.800;2023-02-14T14:55:35;18.42;;;7.15;;
9364;SDS011;4722;49.340;9.800;2023-02-14T14:58:04;12.63;;;5.82;;
9364;SDS011;4722;49.340;9.800;2023-02-14T15:00:32;16.23;;;6.22;;
9364;SDS011;4722;49.340;9.800;2023-02-14T15:02:59;17.00;;;6.75;;
9364;SDS011;4722;49.340;9.800;2023-02-14T15:05:27;16.13;;;6.95;;
9364;SDS011;4722;49.340;9.800;2023-02-14T15:07:53;13.02;;;6.25;;
9364;SDS011;4722;49.340;9.800;2023-02-14T15:10:22;24.33;;;8.70;;
9364;SDS011;4722;49.340;9.800;2023-02-14T15:12:50;17.08;;;6.43;;
9364;SDS011;4722;49.340;9.800;2023-02-14T15:15:35;16.67;;;7.13;;
9364;SDS011;4722;49.340;9.800;2023-02-14T15:18:07;15.98;;;6.10;;
9364;SDS011;4722;49.340;9.800;2023-02-14T15:20:36;18.27;;;7.25;;
9364;SDS011;4722;49.340;9.800;2023-02-14T15:23:03;13.07;;;5.40;;
9364;SDS011;4722;49.340;9.800;2023-02-14T15:25:30;14.88;;;4.65;;
9364;SDS011;4722;49.340;9.800;2023-02-14T15:27:56;13.43;;;6.55;;
9364;SDS011;4722;49.340;9.800;2023-02-14T15:30:30;19.20;;;6.40;;
9364;SDS011;4722;49.340;9.800;2023-02-14T15:32:58;15.63;;;6.53;;
9364;SDS011;4722;49.340;9.800;2023-02-14T15:35:25;14.63;;;6.63;;
9364;SDS011;4722;49.340;9.800;2023-02-14T15:37:52;23.85;;;7.30;;
9364;SDS011;4722;49.340;9.800;2023-02-14T15:40:23;18.98;;;8.32;;
9364;SDS011;4722;49.340;9.800;2023-02-14T15:42:50;16.23;;;6.85;;
9364;SDS011;4722;49.340;9.800;2023-02-14T15:48:05;12.68;;;6.72;;
9364;SDS011;4722;49.340;9.800;2023-02-14T15:50:43;18.25;;;7.57;;
9364;SDS011;4722;49.340;9.800;2023-02-14T15:53:23;15.63;;;6.72;;
9364;SDS011;4722;49.340;9.800;2023-02-14T15:55:52;18.77;;;6.47;;
9364;SDS011;4722;49.340;9.800;2023-02-14T15:58:20;12.65;;;6.18;;
9364;SDS011;4722;49.340;9.800;2023-02-14T16:00:47;14.85;;;7.00;;
9364;SDS011;4722;49.340;9.800;2023-02-14T16:03:18;13.93;;;5.90;;
9364;SDS011;4722;49.340;9.800;2023-02-14T16:05:45;19.08;;;6.55;;
9364;SDS011;4722;49.340;9.800;2023-02-14T16:10:58;15.07;;;6.45;;
9364;SDS011;4722;49.340;9.800;2023-02-14T16:15:55;14.80;;;6.45;;
9364;SDS011;4722;49.340;9.800;2023-02-14T16:21:08;16.55;;;6.88;;
9364;SDS011;4722;49.340;9.800;2023-02-14T16:23:34;16.33;;;6.75;;
9364;SDS011;4722;49.340;9.800;2023-02-14T16:26:01;12.35;;;5.88;;
9364;SDS011;4722;49.340;9.800;2023-02-14T16:28:28;17.95;;;8.23;;
9364;SDS011;4722;49.340;9.800;2023-02-14T16:30:55;16.88;;;6.97;;
9364;SDS011;4722;49.340;9.800;2023-02-14T16:33:22;18.88;;;7.03;;
9364;SDS011;4722;49.340;9.800;2023-02-14T16:35:50;18.70;;;8.35;;
9364;SDS011;4722;49.340;9.800;2023-02-14T16:38:16;15.43;;;8.00;;
9364;SDS011;4722;49.340;9.800;2023-02-14T16:40:49;17.52;;;7.95;;
9364;SDS011;4722;49.340;9.800;2023-02-14T16:43:17;14.07;;;6.63;;
9364;SDS011;4722;49.340;9.800;2023-02-14T16:45:44;12.52;;;5.88;;
9364;SDS011;4722;49.340;9.800;2023-02-14T16:48:10;15.68;;;6.38;;
9364;SDS011;4722;49.340;9.800;2023-02-14T16:50:36;15.88;;;7.10;;
9364;SDS011;4722;49.340;9.800;2023-02-14T16:53:03;12.02;;;6.35;;
9364;SDS011;4722;49.340;9.800;2023-02-14T16:55:29;14.90;;;6.70;;
9364;SDS011;4722;49.340;9.800;2023-02-14T16:57:55;21.20;;;9.18;;
9364;SDS011;4722;49.340;9.800;2023-02-14T17:00:22;18.05;;;7.30;;
9364;SDS011;4722;49.340;9.800;2023-02-14T17:02:48;17.08;;;7.22;;
9364;SDS011;4722;49.340;9.800;2023-02-14T17:05:15;14.25;;;7.93;;
9364;SDS011;4722;49.340;9.800;2023-02-14T17:07:41;14.00;;;6.57;;
9364;SDS011;4722;49.340;9.800;2023-02-14T17:10:14;20.27;;;7.28;;
9364;SDS011;4722;49.340;9.800;2023-02-14T17:12:42;16.63;;;7.30;;
9364;SDS011;4722;49.340;9.800;2023-02-14T17:15:12;15.98;;;7.22;;
9364;SDS011;4722;49.340;9.800;2023-02-14T17:17:39;14.95;;;6.50;;